Ana Sayfa
METAR-TAF:

METAR-TAF

Havaalanları :

Duşanbe, Tacikistan

Enlem: 38-33N, Boylam: 068-47E, yükseklik: 803 m

Güncel hava durumu gözlemi

Rapor saat 02:00 UTC de 18 dakika önce yapıldı.
Rüzgar değişken yönden 2 kt
Sıcaklık 2°C
Nem 87%
Basınç 1024 hPa
Görüş mesafesi: 4200 m
Pus, Duman

METAR: UTDD 190200Z VRB01MPS 4200 BR FU NSC 02/M00 Q1024 R09/D NOSIG RMK QFE699/0932

Saat: 07:18 (02:18 UTC)

Tahmin

Rapor saat 00:00 UTC de 2 saat ve 18 dakika önce yapıldı.
Ayın 19'si saat 01 UTC'den ayın 19'si saat 13 UTC'ye kadar geçerli Tahmin
Rüzgar değişken yönden 4 kt
Görüş mesafesi: 3100 m
5000 ft yükseklikte az bulutlu
10000 ft yükseklikte parçalı bulutlu
Pus, Duman
Geçici
ayın 19'si saat 01 UTC'den ayın 19'si saat 05 UTC'ye kadar
Görüş mesafesi: 1000 m
Pus, Duman

TAF: UTDD 190000Z 1901/1913 VRB02MPS 3100 BR FU FEW050 SCT100 TEMPO 1901/1905 1000 BR FU

4.000'den fazla havaalanı için hava durumu gözlemleri ve tahminleri (METAR ve TAF raporları).

Kullanılabilir istasyonlar harita üzerinde sarı ve kırmızı noktalarla gösterilir.

İstasyonun adını görmek için fareyi noktanın üzerinde gezdirin.

Sonrasında hava gözlem ve tahminlerini görmek için tıklayın.

Haritayı değiştirmek için: yaklaştırmak için siyah artı işaretli yeşil düğmeye ve uzaklaştırmak için de eksi işaretli düğmeye hızla tıklayın; bitişik haritalar için yeşil okları kullanın.


METAR-TAF: